createdAt,value
2022-09-12T00:01:56.204Z,17.70
2022-09-12T00:04:25.042Z,19.00
2022-09-12T00:06:52.439Z,16.83
2022-09-12T00:09:19.842Z,21.05
2022-09-12T00:11:47.808Z,17.52
2022-09-12T00:14:16.295Z,19.98
2022-09-12T00:16:44.141Z,16.85
2022-09-12T00:19:12.111Z,18.00
2022-09-12T00:21:41.652Z,18.65
2022-09-12T00:24:09.114Z,22.02
2022-09-12T00:26:36.637Z,25.48
2022-09-12T00:29:04.487Z,20.95
2022-09-12T00:31:32.165Z,19.60
2022-09-12T00:34:01.509Z,18.10
2022-09-12T00:36:29.514Z,21.60
2022-09-12T00:38:58.769Z,21.63
2022-09-12T00:41:27.048Z,20.45
2022-09-12T00:43:55.211Z,22.75
2022-09-12T00:46:33.427Z,18.63
2022-09-12T00:49:02.649Z,20.25
2022-09-12T00:51:31.447Z,21.92
2022-09-12T00:54:01.065Z,21.73
2022-09-12T00:56:28.944Z,23.33
2022-09-12T00:58:58.747Z,23.77
2022-09-12T01:01:30.456Z,25.25
2022-09-12T01:03:59.800Z,20.27
2022-09-12T01:06:28.669Z,20.23
2022-09-12T01:08:56.352Z,23.42
2022-09-12T01:11:25.184Z,23.85
2022-09-12T01:13:52.579Z,22.45
2022-09-12T01:16:20.086Z,19.58
2022-09-12T01:18:52.802Z,22.75
2022-09-12T01:21:26.337Z,25.42
2022-09-12T01:24:09.406Z,25.90
2022-09-12T01:26:49.854Z,25.67
2022-09-12T01:29:27.354Z,24.67
2022-09-12T01:32:00.869Z,25.55
2022-09-12T01:34:30.942Z,23.40
2022-09-12T01:37:02.074Z,22.67
2022-09-12T01:39:31.132Z,22.95
2022-09-12T01:42:06.777Z,20.25
2022-09-12T01:44:38.207Z,23.00
2022-09-12T01:47:10.833Z,20.95
2022-09-12T01:49:41.271Z,21.02
2022-09-12T01:52:12.752Z,24.40
2022-09-12T01:54:42.621Z,21.48
2022-09-12T01:57:13.683Z,24.65
2022-09-12T01:59:44.491Z,23.00
2022-09-12T02:02:15.224Z,27.83
2022-09-12T02:04:47.763Z,20.75
2022-09-12T02:07:17.231Z,20.20
2022-09-12T02:09:46.339Z,21.08
2022-09-12T02:12:16.305Z,23.13
2022-09-12T02:14:46.847Z,23.77
2022-09-12T02:17:17.105Z,18.52
2022-09-12T02:19:46.473Z,19.05
2022-09-12T02:22:16.590Z,20.50
2022-09-12T02:24:45.387Z,22.75
2022-09-12T02:27:15.608Z,25.38
2022-09-12T02:29:43.361Z,18.98
2022-09-12T02:32:13.560Z,22.13
2022-09-12T02:34:48.693Z,18.90
2022-09-12T02:37:19.604Z,19.02
2022-09-12T02:39:46.967Z,21.85
2022-09-12T02:42:14.443Z,23.33
2022-09-12T02:44:42.136Z,22.15
2022-09-12T02:47:10.869Z,20.77
2022-09-12T02:49:38.350Z,22.48
2022-09-12T02:52:07.293Z,24.83
2022-09-12T02:54:34.699Z,24.83
2022-09-12T02:57:02.095Z,24.65
2022-09-12T02:59:29.613Z,24.40
2022-09-12T03:02:04.074Z,24.15
2022-09-12T03:04:40.028Z,23.17
2022-09-12T03:07:13.353Z,23.65
2022-09-12T03:09:44.468Z,22.70
2022-09-12T03:12:18.088Z,20.73
2022-09-12T03:15:07.173Z,20.10
2022-09-12T03:17:40.539Z,25.55
2022-09-12T03:20:10.919Z,22.27
2022-09-12T03:22:47.129Z,21.57
2022-09-12T03:25:21.927Z,21.77
2022-09-12T03:27:53.921Z,21.20
2022-09-12T03:30:21.389Z,21.90
2022-09-12T03:32:50.163Z,22.25
2022-09-12T03:35:22.833Z,21.13
2022-09-12T03:37:53.007Z,22.83
2022-09-12T03:40:20.671Z,23.38
2022-09-12T03:42:48.182Z,24.10
2022-09-12T03:45:16.484Z,22.88
2022-09-12T03:47:43.881Z,24.30
2022-09-12T03:50:11.389Z,24.80
2022-09-12T03:52:38.747Z,23.95
2022-09-12T03:55:08.181Z,23.60
2022-09-12T03:57:35.603Z,24.15
2022-09-12T04:00:03.165Z,23.20
2022-09-12T04:02:30.570Z,22.85
2022-09-12T04:04:57.994Z,21.73
2022-09-12T04:07:25.501Z,22.83
2022-09-12T04:09:53.238Z,23.20
2022-09-12T04:12:22.230Z,27.15
2022-09-12T04:14:50.207Z,23.40
2022-09-12T04:17:17.649Z,27.48
2022-09-12T04:19:45.014Z,22.88
2022-09-12T04:22:12.402Z,21.70
2022-09-12T04:24:39.762Z,27.33
2022-09-12T04:27:08.218Z,25.83
2022-09-12T04:29:36.950Z,23.65
2022-09-12T04:32:04.632Z,22.27
2022-09-12T04:34:32.386Z,24.95
2022-09-12T04:36:59.905Z,26.17
2022-09-12T04:39:27.427Z,26.85
2022-09-12T04:41:54.806Z,25.33
2022-09-12T04:44:22.189Z,24.90
2022-09-12T04:46:50.931Z,31.35
2022-09-12T04:49:19.278Z,29.45
2022-09-12T04:51:47.025Z,23.83
2022-09-12T04:54:16.163Z,27.90
2022-09-12T04:56:44.400Z,31.05
2022-09-12T04:59:12.345Z,28.20
2022-09-12T05:01:40.002Z,32.97
2022-09-12T05:04:08.831Z,30.13
2022-09-12T05:06:36.977Z,32.55
2022-09-12T05:09:05.765Z,28.00
2022-09-12T05:12:00.084Z,32.22
2022-09-12T05:14:21.983Z,28.88
2022-09-12T05:16:49.882Z,32.80
2022-09-12T05:19:18.830Z,31.25
2022-09-12T05:21:46.341Z,31.42
2022-09-12T05:24:13.704Z,35.50
2022-09-12T05:26:41.122Z,33.22
2022-09-12T05:29:08.477Z,31.13
2022-09-12T05:31:35.883Z,31.98
2022-09-12T05:34:06.943Z,36.90
2022-09-12T05:36:36.902Z,32.50
2022-09-12T05:39:04.854Z,40.05
2022-09-12T05:41:33.769Z,42.55
2022-09-12T05:44:02.357Z,41.63
2022-09-12T05:46:30.748Z,41.08
2022-09-12T05:48:58.356Z,46.47
2022-09-12T05:51:26.844Z,50.55
2022-09-12T05:53:56.594Z,47.60
2022-09-12T05:56:25.204Z,58.45
2022-09-12T05:58:54.147Z,65.70
2022-09-12T06:01:21.617Z,66.50
2022-09-12T06:03:50.229Z,64.95
2022-09-12T06:06:18.621Z,73.60
2022-09-12T06:08:47.455Z,75.60
2022-09-12T06:11:17.636Z,78.05
2022-09-12T06:13:45.300Z,74.55
2022-09-12T06:16:13.310Z,74.38
2022-09-12T06:18:41.432Z,67.85
2022-09-12T06:21:09.542Z,73.97
2022-09-12T06:23:37.307Z,69.53
2022-09-12T06:26:05.158Z,68.28
2022-09-12T06:28:35.556Z,68.38
2022-09-12T06:31:05.327Z,71.13
2022-09-12T06:33:33.381Z,68.97
2022-09-12T06:36:08.970Z,67.50
2022-09-12T06:38:39.264Z,65.85
2022-09-12T06:41:07.349Z,60.33
2022-09-12T06:43:36.984Z,66.22
2022-09-12T06:46:04.942Z,58.67
2022-09-12T06:48:32.727Z,67.95
2022-09-12T06:51:00.894Z,64.88
2022-09-12T06:53:28.990Z,60.17
2022-09-12T06:55:57.096Z,61.67
2022-09-12T06:58:24.560Z,62.75
2022-09-12T07:00:57.247Z,68.38
2022-09-12T07:03:26.435Z,60.50
2022-09-12T07:05:53.872Z,60.53
2022-09-12T07:08:21.273Z,53.47
2022-09-12T07:10:48.665Z,56.88
2022-09-12T07:13:16.082Z,50.95
2022-09-12T07:15:43.423Z,58.35
2022-09-12T07:18:12.175Z,58.97
2022-09-12T07:20:39.726Z,52.88
2022-09-12T07:23:07.167Z,59.38
2022-09-12T07:25:34.517Z,54.42
2022-09-12T07:28:02.344Z,52.50
2022-09-12T07:30:29.851Z,55.00
2022-09-12T07:32:57.342Z,48.60
2022-09-12T07:35:26.128Z,50.25
2022-09-12T07:37:53.860Z,53.50
2022-09-12T07:40:21.738Z,46.35
2022-09-12T07:42:49.391Z,54.30
2022-09-12T07:45:16.864Z,47.88
2022-09-12T07:47:44.281Z,40.53
2022-09-12T07:50:11.821Z,47.33
2022-09-12T07:52:40.575Z,46.55
2022-09-12T07:55:08.247Z,41.47
2022-09-12T07:57:35.610Z,39.83
2022-09-12T08:00:03.825Z,44.55
2022-09-12T08:02:31.233Z,41.67
2022-09-12T08:04:58.624Z,43.72
2022-09-12T08:07:25.996Z,48.30
2022-09-12T08:09:54.898Z,46.33
2022-09-12T08:12:22.233Z,51.10
2022-09-12T08:14:49.603Z,39.85
2022-09-12T08:17:17.007Z,39.88
2022-09-12T08:19:44.900Z,47.58
2022-09-12T08:22:12.339Z,39.50
2022-09-12T08:24:40.394Z,36.72
2022-09-12T08:27:09.129Z,41.60
2022-09-12T08:29:36.499Z,40.35
2022-09-12T08:32:04.184Z,38.33
2022-09-12T08:34:31.584Z,38.58
2022-09-12T08:36:59.149Z,37.92
2022-09-12T08:39:26.569Z,37.15
2022-09-12T08:41:59.073Z,35.55
2022-09-12T08:44:34.940Z,37.70
2022-09-12T08:47:23.078Z,36.90
2022-09-12T08:49:54.411Z,37.40
2022-09-12T08:52:24.697Z,37.30
2022-09-12T08:54:52.224Z,37.05
2022-09-12T08:57:20.008Z,34.85
2022-09-12T08:59:49.340Z,34.53
2022-09-12T09:02:25.690Z,35.80
2022-09-12T09:04:57.116Z,35.97
2022-09-12T09:07:34.522Z,36.25
2022-09-12T09:10:07.842Z,33.90
2022-09-12T09:12:39.052Z,32.03
2022-09-12T09:15:12.736Z,34.45
2022-09-12T09:17:41.568Z,32.83
2022-09-12T09:20:15.163Z,32.33
2022-09-12T09:22:44.391Z,32.28
2022-09-12T09:25:15.330Z,31.45
2022-09-12T09:27:44.099Z,33.90
2022-09-12T09:30:16.409Z,30.92
2022-09-12T09:32:44.955Z,33.85
2022-09-12T09:35:15.528Z,28.35
2022-09-12T09:37:43.677Z,29.17
2022-09-12T09:40:17.967Z,29.98
2022-09-12T09:42:46.874Z,26.65
2022-09-12T09:45:16.802Z,29.77
2022-09-12T09:47:45.925Z,27.95
2022-09-12T09:50:16.535Z,25.13
2022-09-12T09:52:44.300Z,23.40
2022-09-12T09:55:16.101Z,25.10
2022-09-12T09:57:44.634Z,22.63
2022-09-12T10:00:27.004Z,24.50
2022-09-12T10:03:02.786Z,24.40
2022-09-12T10:05:31.331Z,24.33
2022-09-12T10:07:58.786Z,24.35
2022-09-12T10:10:26.417Z,21.25
2022-09-12T10:13:06.889Z,23.92
2022-09-12T10:15:35.808Z,20.45
2022-09-12T10:18:04.293Z,17.65
2022-09-12T10:20:32.806Z,19.05
2022-09-12T10:23:01.132Z,20.80
2022-09-12T10:25:28.949Z,18.73
2022-09-12T10:27:57.984Z,23.20
2022-09-12T10:30:28.155Z,20.13
2022-09-12T10:32:58.888Z,19.88
2022-09-12T10:35:30.402Z,17.75
2022-09-12T10:37:59.407Z,16.40
2022-09-12T10:40:28.000Z,16.45
2022-09-12T10:42:56.583Z,18.95
2022-09-12T10:45:28.939Z,16.88
2022-09-12T10:48:02.113Z,16.08
2022-09-12T10:50:32.598Z,14.95
2022-09-12T10:53:14.342Z,15.88
2022-09-12T10:55:43.515Z,15.02
2022-09-12T10:58:18.773Z,14.32
2022-09-12T11:00:48.823Z,15.73
2022-09-12T11:03:23.323Z,19.42
2022-09-12T11:05:53.490Z,15.80
2022-09-12T11:08:27.793Z,16.55
2022-09-12T11:11:00.756Z,14.10
2022-09-12T11:13:35.695Z,19.25
2022-09-12T11:16:09.864Z,10.65
2022-09-12T11:18:46.433Z,9.82
2022-09-12T11:21:18.267Z,9.27
2022-09-12T11:23:59.192Z,12.23
2022-09-12T11:29:02.706Z,11.20
2022-09-12T11:31:42.148Z,9.20
2022-09-12T11:34:11.792Z,7.68
2022-09-12T11:36:43.409Z,10.25
2022-09-12T11:39:14.464Z,10.48
2022-09-12T11:41:42.938Z,10.32
2022-09-12T11:44:15.518Z,10.93
2022-09-12T11:46:43.633Z,9.07
2022-09-12T11:49:23.399Z,8.75
2022-09-12T11:51:53.090Z,10.13
2022-09-12T11:54:23.869Z,7.78
2022-09-12T11:59:31.765Z,9.10
2022-09-12T12:02:00.181Z,11.35
2022-09-12T12:04:33.061Z,8.73
2022-09-12T12:07:04.020Z,8.93
2022-09-12T12:09:31.692Z,8.48
2022-09-12T12:12:01.788Z,7.93
2022-09-12T12:14:32.923Z,7.65
2022-09-12T12:17:00.556Z,7.10
2022-09-12T12:19:36.620Z,7.55
2022-09-12T12:22:08.660Z,7.22
2022-09-12T12:24:37.657Z,7.38
2022-09-12T12:27:06.185Z,11.20
2022-09-12T12:29:43.858Z,6.57
2022-09-12T12:32:21.793Z,6.00
2022-09-12T12:34:50.507Z,7.43
2022-09-12T12:37:39.913Z,6.05
2022-09-12T12:40:09.878Z,6.45
2022-09-12T12:43:02.723Z,6.40
2022-09-12T12:45:48.959Z,5.30
2022-09-12T12:48:17.635Z,6.65
2022-09-12T12:50:46.325Z,4.90
2022-09-12T12:53:19.555Z,10.18
2022-09-12T12:55:48.107Z,6.35
2022-09-12T12:58:25.562Z,8.43
2022-09-12T13:01:04.107Z,4.57
2022-09-12T13:03:32.565Z,5.25
2022-09-12T13:06:02.810Z,6.35
2022-09-12T13:08:31.622Z,4.47
2022-09-12T13:11:01.322Z,5.97
2022-09-12T13:13:32.176Z,4.78
2022-09-12T13:15:59.683Z,6.43
2022-09-12T13:18:29.198Z,4.95
2022-09-12T13:21:00.821Z,5.43
2022-09-12T13:23:31.100Z,4.47
2022-09-12T13:25:59.289Z,6.13
2022-09-12T13:28:27.655Z,4.68
2022-09-12T13:31:02.913Z,4.40
2022-09-12T13:33:38.066Z,4.15
2022-09-12T13:36:26.429Z,7.50
2022-09-12T13:38:59.200Z,3.72
2022-09-12T13:41:37.189Z,6.95
2022-09-12T13:44:05.120Z,6.22
2022-09-12T13:46:33.911Z,5.80
2022-09-12T13:49:02.907Z,6.88
2022-09-12T13:51:32.002Z,4.88
2022-09-12T13:54:03.203Z,5.20
2022-09-12T13:56:30.634Z,4.85
2022-09-12T13:58:58.745Z,6.28
2022-09-12T14:01:37.539Z,4.28
2022-09-12T14:04:31.970Z,5.15
2022-09-12T14:07:00.932Z,5.63
2022-09-12T14:09:32.041Z,6.25
2022-09-12T14:11:59.910Z,4.78
2022-09-12T14:14:31.445Z,7.47
2022-09-12T14:16:58.909Z,4.68
2022-09-12T14:19:27.286Z,7.47
2022-09-12T14:21:55.212Z,4.85
2022-09-12T14:24:24.154Z,5.05
2022-09-12T14:26:56.567Z,3.55
2022-09-12T14:29:25.129Z,4.50
2022-09-12T14:32:02.732Z,6.22
2022-09-12T14:34:30.854Z,6.38
2022-09-12T14:36:58.683Z,6.90
2022-09-12T14:39:28.853Z,5.38
2022-09-12T14:42:08.209Z,6.10
2022-09-12T14:44:36.038Z,5.55
2022-09-12T14:47:12.272Z,4.10
2022-09-12T14:49:39.709Z,7.90
2022-09-12T14:52:09.164Z,5.57
2022-09-12T14:54:38.630Z,4.55
2022-09-12T14:57:08.118Z,5.13
2022-09-12T14:59:39.538Z,4.18
2022-09-12T15:02:19.897Z,6.63
2022-09-12T15:04:48.870Z,4.78
2022-09-12T15:07:16.539Z,4.82
2022-09-12T15:09:47.198Z,8.07
2022-09-12T15:12:16.372Z,5.75
2022-09-12T15:14:43.768Z,6.60
2022-09-12T15:17:11.172Z,5.47
2022-09-12T15:19:38.576Z,4.70
2022-09-12T15:22:06.018Z,5.38
2022-09-12T15:24:33.404Z,4.32
2022-09-12T15:27:00.780Z,5.10
2022-09-12T15:29:29.517Z,7.25
2022-09-12T15:31:56.952Z,4.10
2022-09-12T15:34:24.330Z,4.70
2022-09-12T15:36:51.749Z,4.90
2022-09-12T15:39:19.149Z,7.03
2022-09-12T15:41:48.566Z,4.80
2022-09-12T15:44:15.985Z,4.10
2022-09-12T15:46:44.944Z,4.25
2022-09-12T15:49:12.374Z,5.65
2022-09-12T15:51:40.054Z,3.28
2022-09-12T15:54:07.489Z,7.07
2022-09-12T15:56:34.901Z,4.95
2022-09-12T15:59:02.287Z,7.38
2022-09-12T16:01:30.078Z,6.13
2022-09-12T16:03:59.099Z,5.18
2022-09-12T16:06:27.578Z,3.47
2022-09-12T16:08:55.196Z,4.57
2022-09-12T16:11:23.932Z,3.72
2022-09-12T16:13:52.453Z,3.72
2022-09-12T16:16:19.913Z,3.50
2022-09-12T16:18:47.439Z,3.10
2022-09-12T16:21:16.301Z,4.32
2022-09-12T16:23:43.846Z,4.05
2022-09-12T16:26:11.412Z,3.97
2022-09-12T16:28:38.985Z,4.22
2022-09-12T16:31:07.425Z,5.53
2022-09-12T16:33:35.222Z,6.28
2022-09-12T16:36:03.217Z,5.03
2022-09-12T16:38:32.207Z,4.28
2022-09-12T16:41:03.108Z,12.10
2022-09-12T16:43:30.489Z,5.80
2022-09-12T16:46:01.414Z,3.85
2022-09-12T16:48:28.835Z,3.72
2022-09-12T16:51:00.607Z,4.25
2022-09-12T16:53:30.368Z,4.13
2022-09-12T16:55:59.078Z,4.50
2022-09-12T16:58:26.801Z,3.38
2022-09-12T17:01:00.218Z,5.40
2022-09-12T17:03:27.613Z,8.80
2022-09-12T17:05:58.623Z,3.42
2022-09-12T17:08:26.331Z,4.60
2022-09-12T17:10:53.745Z,4.13
2022-09-12T17:13:22.482Z,4.45
2022-09-12T17:15:49.889Z,3.40
2022-09-12T17:18:17.263Z,3.38
2022-09-12T17:20:44.632Z,3.10
2022-09-12T17:23:11.995Z,4.55
2022-09-12T17:25:39.419Z,4.80
2022-09-12T17:28:07.482Z,4.22
2022-09-12T17:30:36.396Z,3.38
2022-09-12T17:33:03.878Z,12.07
2022-09-12T17:35:34.457Z,5.53
2022-09-12T17:38:02.439Z,4.90
2022-09-12T17:40:55.685Z,10.70
2022-09-12T17:43:17.284Z,5.45
2022-09-12T17:45:46.252Z,13.00
2022-09-12T17:48:13.626Z,4.47
2022-09-12T17:50:41.481Z,5.57
2022-09-12T17:53:09.676Z,7.20
2022-09-12T17:55:37.119Z,6.85
2022-09-12T17:58:04.561Z,7.72
2022-09-12T18:00:45.956Z,7.72
2022-09-12T18:03:14.960Z,6.88
2022-09-12T18:05:48.389Z,5.25
2022-09-12T18:08:16.103Z,8.38
2022-09-12T18:10:43.502Z,4.55
2022-09-12T18:13:10.909Z,4.88
2022-09-12T18:15:41.228Z,7.65
2022-09-12T18:18:08.701Z,4.40
2022-09-12T18:20:37.463Z,5.25
2022-09-12T18:23:04.920Z,4.30
2022-09-12T18:25:32.263Z,4.60
2022-09-12T18:27:59.634Z,4.50
2022-09-12T18:30:27.191Z,5.10
2022-09-12T18:32:54.623Z,4.30
2022-09-12T18:35:21.996Z,4.82
2022-09-12T18:37:50.767Z,4.65
2022-09-12T18:40:18.426Z,5.15
2022-09-12T18:42:45.872Z,4.97
2022-09-12T18:45:13.258Z,4.28
2022-09-12T18:47:41.869Z,4.30
2022-09-12T18:50:09.610Z,6.22
2022-09-12T18:52:36.962Z,4.95
2022-09-12T18:55:06.234Z,5.88
2022-09-12T18:57:35.033Z,5.07
2022-09-12T19:00:04.065Z,4.95
2022-09-12T19:02:31.865Z,4.53
2022-09-12T19:04:59.219Z,6.53
2022-09-12T19:07:26.657Z,4.25
2022-09-12T19:09:54.102Z,4.47
2022-09-12T19:12:22.847Z,7.82
2022-09-12T19:14:50.259Z,5.97
2022-09-12T19:17:19.456Z,5.20
2022-09-12T19:19:47.066Z,6.20
2022-09-12T19:22:14.423Z,6.60
2022-09-12T19:24:41.850Z,4.60
2022-09-12T19:27:09.249Z,5.03
2022-09-12T19:29:37.975Z,4.63
2022-09-12T19:32:05.536Z,5.32
2022-09-12T19:34:32.914Z,5.65
2022-09-12T19:37:00.339Z,5.65
2022-09-12T19:39:27.734Z,7.32
2022-09-12T19:41:55.085Z,6.07
2022-09-12T19:44:23.612Z,7.53
2022-09-12T19:46:52.621Z,5.68
2022-09-12T19:49:20.015Z,4.68
2022-09-12T19:51:47.386Z,5.90
2022-09-12T19:54:14.757Z,6.97
2022-09-12T19:56:42.219Z,5.00
2022-09-12T19:59:09.748Z,7.63
2022-09-12T20:01:37.931Z,5.53
2022-09-12T20:04:07.456Z,5.85
2022-09-12T20:06:34.877Z,5.88
2022-09-12T20:09:02.284Z,6.75
2022-09-12T20:11:29.650Z,5.88
2022-09-12T20:13:57.028Z,6.38
2022-09-12T20:16:25.614Z,6.18
2022-09-12T20:18:54.225Z,5.43
2022-09-12T20:21:25.047Z,5.88
2022-09-12T20:23:52.560Z,8.10
2022-09-12T20:26:20.731Z,7.65
2022-09-12T20:28:48.313Z,6.45
2022-09-12T20:31:16.628Z,6.35
2022-09-12T20:33:45.823Z,5.95
2022-09-12T20:36:16.220Z,8.27
2022-09-12T20:38:47.581Z,6.97
2022-09-12T20:41:15.045Z,6.18
2022-09-12T20:43:42.443Z,6.25
2022-09-12T20:46:10.895Z,6.10
2022-09-12T20:48:38.748Z,6.25
2022-09-12T20:51:06.276Z,5.97
2022-09-12T20:53:35.228Z,7.68
2022-09-12T20:56:05.287Z,7.05
2022-09-12T20:58:32.702Z,8.45
2022-09-12T21:01:00.537Z,6.22
2022-09-12T21:03:27.909Z,8.60
2022-09-12T21:05:55.291Z,7.18
2022-09-12T21:08:22.704Z,9.70
2022-09-12T21:10:50.086Z,8.93
2022-09-12T21:13:18.844Z,7.95
2022-09-12T21:15:46.231Z,6.97
2022-09-12T21:18:13.635Z,7.55
2022-09-12T21:20:41.006Z,6.97
2022-09-12T21:23:08.376Z,7.97
2022-09-12T21:25:35.726Z,7.13
2022-09-12T21:28:03.301Z,6.95
2022-09-12T21:30:32.073Z,8.63
2022-09-12T21:32:59.463Z,8.38
2022-09-12T21:35:26.898Z,8.68
2022-09-12T21:37:54.322Z,9.43
2022-09-12T21:40:21.776Z,9.00
2022-09-12T21:42:49.391Z,8.80
2022-09-12T21:45:16.883Z,8.63
2022-09-12T21:47:45.611Z,10.13
2022-09-12T21:50:13.411Z,7.88
2022-09-12T21:52:40.755Z,10.35
2022-09-12T21:55:08.660Z,7.18
2022-09-12T21:57:36.359Z,12.55
2022-09-12T22:00:05.417Z,8.93
2022-09-12T22:02:32.795Z,7.97
2022-09-12T22:05:01.531Z,11.05
2022-09-12T22:07:29.535Z,8.90
2022-09-12T22:09:57.104Z,10.80
2022-09-12T22:12:27.364Z,8.88
2022-09-12T22:14:55.267Z,7.67
2022-09-12T22:17:22.733Z,7.82
2022-09-12T22:19:50.127Z,10.43
2022-09-12T22:22:36.654Z,13.18
2022-09-12T22:25:04.183Z,9.02
2022-09-12T22:27:31.555Z,13.02
2022-09-12T22:29:58.952Z,12.15
2022-09-12T22:32:26.362Z,10.13
2022-09-12T22:34:53.748Z,9.88
2022-09-12T22:37:22.736Z,9.90
2022-09-12T22:39:50.146Z,9.13
2022-09-12T22:42:17.540Z,10.85
2022-09-12T22:44:44.910Z,11.68
2022-09-12T22:47:12.268Z,9.27
2022-09-12T22:49:39.650Z,11.48
2022-09-12T22:52:07.036Z,11.02
2022-09-12T22:54:36.973Z,9.98
2022-09-12T22:57:04.484Z,11.00
2022-09-12T22:59:31.867Z,14.77
2022-09-12T23:01:59.221Z,13.43
2022-09-12T23:04:26.661Z,14.20
2022-09-12T23:06:54.058Z,22.15
2022-09-12T23:09:21.462Z,16.80
2022-09-12T23:11:50.658Z,17.17
2022-09-12T23:14:18.373Z,14.82
2022-09-12T23:16:45.743Z,15.68
2022-09-12T23:19:13.132Z,14.85
2022-09-12T23:21:40.524Z,16.33
2022-09-12T23:24:07.937Z,15.65
2022-09-12T23:26:35.385Z,14.45
2022-09-12T23:29:05.575Z,15.02
2022-09-12T23:31:33.627Z,14.03
2022-09-12T23:34:02.752Z,14.57
2022-09-12T23:36:30.231Z,15.68
2022-09-12T23:38:58.505Z,15.45
2022-09-12T23:41:26.017Z,15.85
2022-09-12T23:43:53.654Z,20.35
2022-09-12T23:46:22.514Z,17.02
2022-09-12T23:48:49.972Z,18.50
2022-09-12T23:51:17.414Z,21.77
2022-09-12T23:53:44.762Z,15.85
2022-09-12T23:56:12.247Z,18.85
2022-09-12T23:58:39.609Z,14.00
